createdAt,value
2022-11-24T00:00:12.534Z,96977.59
2022-11-24T00:01:21.381Z,96977.59
2022-11-24T00:02:24.140Z,96978.31
2022-11-24T00:03:27.161Z,96981.75
2022-11-24T00:04:29.819Z,96979.03
2022-11-24T00:05:38.661Z,96977.91
2022-11-24T00:06:41.535Z,96981.66
2022-11-24T00:07:44.760Z,96992.53
2022-11-24T00:08:48.019Z,96984.22
2022-11-24T00:09:50.734Z,96986.06
2022-11-24T00:10:53.420Z,96986.06
2022-11-24T00:11:56.214Z,96989.38
2022-11-24T00:12:58.941Z,96985.19
2022-11-24T00:14:02.264Z,96984.47
2022-11-24T00:15:05.292Z,96986.47
2022-11-24T00:16:22.511Z,96988.47
2022-11-24T00:17:25.347Z,96980.31
2022-11-24T00:18:28.087Z,96989.91
2022-11-24T00:19:30.954Z,96984.22
2022-11-24T00:20:33.736Z,96986.38
2022-11-24T00:21:37.624Z,96986.22
2022-11-24T00:22:40.284Z,96988.22
2022-11-24T00:23:43.628Z,96995.53
2022-11-24T00:24:46.371Z,96991.50
2022-11-24T00:25:49.030Z,97002.38
2022-11-24T00:26:51.934Z,97003.09
2022-11-24T00:27:54.701Z,97001.97
2022-11-24T00:29:01.472Z,96995.81
2022-11-24T00:30:04.780Z,96998.69
2022-11-24T00:31:21.260Z,97000.13
2022-11-24T00:32:24.074Z,97004.13
2022-11-24T00:33:26.830Z,97001.25
2022-11-24T00:34:29.643Z,96999.81
2022-11-24T00:35:32.436Z,97004.72
2022-11-24T00:36:36.234Z,97005.03
2022-11-24T00:37:39.035Z,97010.72
2022-11-24T00:38:44.089Z,97007.16
2022-11-24T00:39:47.103Z,97009.88
2022-11-24T00:40:49.954Z,97009.88
2022-11-24T00:41:52.692Z,97010.69
2022-11-24T00:42:55.444Z,97010.69
2022-11-24T00:43:59.435Z,97015.28
2022-11-24T00:45:12.902Z,97019.28
2022-11-24T00:46:16.491Z,97016.84
2022-11-24T00:47:19.155Z,97023.00
2022-11-24T00:48:22.394Z,97012.87
2022-11-24T00:49:25.072Z,97018.84
2022-11-24T00:50:28.348Z,97018.72
2022-11-24T00:51:31.767Z,97024.03
2022-11-24T00:52:34.591Z,97026.47
2022-11-24T00:53:41.161Z,97017.75
2022-11-24T00:54:44.051Z,97022.31
2022-11-24T00:55:50.208Z,97022.19
2022-11-24T00:56:53.049Z,97025.16
2022-11-24T00:57:55.904Z,97023.75
2022-11-24T00:58:59.178Z,97034.03
2022-11-24T01:00:02.106Z,97027.00
2022-11-24T01:01:10.885Z,97024.88
2022-11-24T01:02:13.895Z,97027.00
2022-11-24T01:03:17.637Z,97033.88
2022-11-24T01:04:20.481Z,97032.88
2022-11-24T01:05:23.164Z,97035.44
2022-11-24T01:06:26.754Z,97033.44
2022-11-24T01:07:29.443Z,97032.72
2022-11-24T01:08:36.625Z,97030.56
2022-11-24T01:09:39.697Z,97032.16
2022-11-24T01:10:42.657Z,97032.88
2022-11-24T01:12:04.387Z,97029.00
2022-11-24T01:13:07.459Z,97034.44
2022-11-24T01:14:10.391Z,97033.59
2022-11-24T01:15:13.062Z,97035.03
2022-11-24T01:16:30.494Z,97043.31
2022-11-24T01:17:33.190Z,97037.47
2022-11-24T01:18:36.334Z,97038.19
2022-11-24T01:19:38.923Z,97041.31
2022-11-24T01:20:41.867Z,97037.16
2022-11-24T01:21:44.782Z,97043.19
2022-11-24T01:22:49.092Z,97039.31
2022-11-24T01:23:51.838Z,97044.22
2022-11-24T01:24:54.549Z,97035.63
2022-11-24T01:25:57.257Z,97042.97
2022-11-24T01:26:59.889Z,97042.97
2022-11-24T01:28:02.656Z,97042.66
2022-11-24T01:29:05.787Z,97039.94
2022-11-24T01:30:09.211Z,97036.59
2022-11-24T01:31:12.113Z,97036.75
2022-11-24T01:32:14.855Z,97043.63
2022-11-24T01:33:17.544Z,97040.06
2022-11-24T01:34:20.286Z,97039.88
2022-11-24T01:35:22.931Z,97043.19
2022-11-24T01:36:26.292Z,97045.38
2022-11-24T01:37:29.128Z,97043.50
2022-11-24T01:38:32.326Z,97044.47
2022-11-24T01:39:35.023Z,97045.19
2022-11-24T01:40:37.710Z,97044.88
2022-11-24T01:41:40.679Z,97046.56
2022-11-24T01:42:48.413Z,97047.00
2022-11-24T01:43:52.490Z,97048.25
2022-11-24T01:45:35.315Z,97054.72
2022-11-24T01:46:47.653Z,97053.69
2022-11-24T01:47:50.330Z,97054.44
2022-11-24T01:48:57.795Z,97056.59
2022-11-24T01:50:03.347Z,97053.56
2022-11-24T01:51:33.171Z,97056.28
2022-11-24T01:52:43.593Z,97059.87
2022-11-24T01:54:01.400Z,97054.00
2022-11-24T01:55:12.116Z,97055.88
2022-11-24T01:56:15.387Z,97052.44
2022-11-24T01:57:24.748Z,97055.03
2022-11-24T01:58:32.707Z,97056.78
2022-11-24T01:59:35.695Z,97055.91
2022-11-24T02:00:41.533Z,97048.31
2022-11-24T02:01:44.473Z,97046.88
2022-11-24T02:02:47.193Z,97042.41
2022-11-24T02:03:50.866Z,97045.13
2022-11-24T02:04:54.690Z,97048.56
2022-11-24T02:06:00.125Z,97052.59
2022-11-24T02:07:06.232Z,97047.00
2022-11-24T02:08:26.006Z,97053.16
2022-11-24T02:09:35.362Z,97051.47
2022-11-24T02:10:38.957Z,97049.47
2022-11-24T02:11:43.103Z,97057.44
2022-11-24T02:12:48.009Z,97050.44
2022-11-24T02:13:53.523Z,97049.91
2022-11-24T02:14:56.896Z,97045.13
2022-11-24T02:16:00.257Z,97050.25
2022-11-24T02:17:03.539Z,97057.56
2022-11-24T02:18:06.571Z,97055.97
2022-11-24T02:19:24.769Z,97057.56
2022-11-24T02:20:27.773Z,97058.53
2022-11-24T02:21:30.583Z,97051.09
2022-11-24T02:23:21.608Z,97054.28
2022-11-24T02:24:39.891Z,97051.25
2022-11-24T02:25:56.446Z,97055.25
2022-11-24T02:26:59.488Z,97053.09
2022-11-24T02:28:07.340Z,97053.25
2022-11-24T02:29:12.009Z,97051.25
2022-11-24T02:30:15.015Z,97054.38
2022-11-24T02:31:18.380Z,97054.38
2022-11-24T02:32:21.775Z,97053.09
2022-11-24T02:33:25.574Z,97050.53
2022-11-24T02:34:28.492Z,97063.56
2022-11-24T02:35:32.154Z,97058.13
2022-11-24T02:36:35.095Z,97063.56
2022-11-24T02:37:38.300Z,97063.00
2022-11-24T02:38:41.173Z,97074.19
2022-11-24T02:39:43.866Z,97061.31
2022-11-24T02:40:50.205Z,97059.87
2022-11-24T02:41:59.448Z,97066.75
2022-11-24T02:43:09.450Z,97071.47
2022-11-24T02:44:15.812Z,97066.56
2022-11-24T02:45:18.899Z,97071.63
2022-11-24T02:46:21.979Z,97066.31
2022-11-24T02:47:27.183Z,97068.50
2022-11-24T02:48:30.719Z,97062.75
2022-11-24T02:49:34.045Z,97062.59
2022-11-24T02:50:37.117Z,97066.94
2022-11-24T02:51:39.855Z,97062.88
2022-11-24T02:52:42.606Z,97055.44
2022-11-24T02:53:45.428Z,97060.34
2022-11-24T02:54:48.107Z,97062.16
2022-11-24T02:55:50.749Z,97056.91
2022-11-24T02:56:53.449Z,97058.34
2022-11-24T02:57:56.356Z,97055.34
2022-11-24T02:58:59.090Z,97055.44
2022-11-24T03:00:01.923Z,97057.88
2022-11-24T03:01:04.845Z,97058.00
2022-11-24T03:02:07.494Z,97048.56
2022-11-24T03:03:10.630Z,97060.72
2022-11-24T03:04:13.376Z,97059.56
2022-11-24T03:05:16.144Z,97063.00
2022-11-24T03:06:18.733Z,97057.22
2022-11-24T03:07:23.164Z,97062.62
2022-11-24T03:08:25.952Z,97060.88
2022-11-24T03:09:28.825Z,97058.13
2022-11-24T03:10:31.582Z,97061.09
2022-11-24T03:11:34.452Z,97065.25
2022-11-24T03:12:37.413Z,97067.63
2022-11-24T03:13:40.058Z,97062.19
2022-11-24T03:14:42.772Z,97060.78
2022-11-24T03:15:45.523Z,97066.06
2022-11-24T03:16:48.331Z,97063.34
2022-11-24T03:17:51.213Z,97066.59
2022-11-24T03:18:54.090Z,97073.78
2022-11-24T03:20:02.944Z,97069.38
2022-11-24T03:21:07.381Z,97064.19
2022-11-24T03:22:10.210Z,97070.53
2022-11-24T03:23:12.852Z,97070.91
2022-11-24T03:24:15.572Z,97081.66
2022-11-24T03:25:18.860Z,97080.19
2022-11-24T03:26:23.477Z,97081.47
2022-11-24T03:27:26.457Z,97083.06
2022-11-24T03:28:29.451Z,97080.91
2022-11-24T03:29:32.213Z,97080.03
2022-11-24T03:30:35.323Z,97087.94
2022-11-24T03:31:38.187Z,97077.88
2022-11-24T03:32:45.376Z,97090.03
2022-11-24T03:33:48.041Z,97093.16
2022-11-24T03:34:50.802Z,97085.41
2022-11-24T03:35:53.414Z,97086.28
2022-11-24T03:36:56.023Z,97093.88
2022-11-24T03:37:58.694Z,97087.97
2022-11-24T03:39:01.610Z,97093.25
2022-11-24T03:40:04.852Z,97090.81
2022-11-24T03:41:07.732Z,97091.25
2022-11-24T03:42:10.434Z,97089.78
2022-11-24T03:43:13.328Z,97087.31
2022-11-24T03:44:15.997Z,97088.91
2022-11-24T03:46:42.415Z,97081.16
2022-11-24T03:47:45.171Z,97080.31
2022-11-24T03:48:47.984Z,97083.41
2022-11-24T03:49:50.759Z,97081.72
2022-11-24T03:50:59.217Z,97086.69
2022-11-24T03:52:07.651Z,97085.34
2022-11-24T03:53:11.075Z,97088.91
2022-11-24T03:54:13.829Z,97087.25
2022-11-24T03:55:16.617Z,97095.88
2022-11-24T03:56:19.354Z,97094.19
2022-11-24T03:57:22.149Z,97090.03
2022-11-24T03:58:25.796Z,97089.78
2022-11-24T03:59:28.384Z,97091.16
2022-11-24T04:00:31.923Z,97094.03
2022-11-24T04:01:35.121Z,97093.25
2022-11-24T04:02:38.457Z,97089.50
2022-11-24T04:03:41.169Z,97095.31
2022-11-24T04:04:48.472Z,97096.84
2022-11-24T04:05:52.426Z,97096.41
2022-11-24T04:06:55.121Z,97088.91
2022-11-24T04:07:58.101Z,97092.84
2022-11-24T04:09:01.177Z,97090.50
2022-11-24T04:10:04.500Z,97091.97
2022-11-24T04:11:07.509Z,97094.03
2022-11-24T04:12:29.376Z,97086.44
2022-11-24T04:13:32.131Z,97087.97
2022-11-24T04:14:35.117Z,97098.66
2022-11-24T04:15:40.644Z,97094.19
2022-11-24T04:16:43.441Z,97092.34
2022-11-24T04:17:47.257Z,97094.75
2022-11-24T04:18:53.081Z,97100.19
2022-11-24T04:19:55.838Z,97092.59
2022-11-24T04:20:58.538Z,97104.16
2022-11-24T04:22:01.134Z,97101.69
2022-11-24T04:23:04.752Z,97106.75
2022-11-24T04:24:08.110Z,97102.19
2022-11-24T04:25:11.558Z,97095.06
2022-11-24T04:26:14.539Z,97097.16
2022-11-24T04:27:17.385Z,97102.84
2022-11-24T04:28:20.335Z,97108.25
2022-11-24T04:29:23.397Z,97106.25
2022-11-24T04:30:28.168Z,97120.94
2022-11-24T04:31:30.937Z,97118.06
2022-11-24T04:32:33.676Z,97119.91
2022-11-24T04:33:36.454Z,97121.19
2022-11-24T04:34:39.131Z,97132.19
2022-11-24T04:35:41.971Z,97122.47
2022-11-24T04:36:44.676Z,97127.31
2022-11-24T04:37:47.607Z,97117.03
2022-11-24T04:39:19.500Z,97125.50
2022-11-24T04:40:16.257Z,97130.69
2022-11-24T04:41:19.086Z,97135.81
2022-11-24T04:42:21.973Z,97132.38
2022-11-24T04:43:24.819Z,97135.97
2022-11-24T04:44:27.549Z,97137.97
2022-11-24T04:45:30.491Z,97143.37
2022-11-24T04:46:33.236Z,97138.38
2022-11-24T04:47:36.204Z,97155.38
2022-11-24T04:48:42.210Z,97151.37
2022-11-24T04:49:47.202Z,97149.87
2022-11-24T04:50:50.079Z,97150.97
2022-11-24T04:51:52.933Z,97152.47
2022-11-24T04:52:55.939Z,97154.88
2022-11-24T04:53:58.593Z,97154.88
2022-11-24T04:55:01.615Z,97160.13
2022-11-24T04:56:06.495Z,97161.25
2022-11-24T04:57:16.841Z,97167.22
2022-11-24T04:58:20.253Z,97168.28
2022-11-24T04:59:23.025Z,97173.16
2022-11-24T05:00:25.777Z,97170.66
2022-11-24T05:01:29.271Z,97177.56
2022-11-24T05:02:31.959Z,97171.41
2022-11-24T05:03:36.222Z,97181.84
2022-11-24T05:04:39.271Z,97174.88
2022-11-24T05:05:41.890Z,97183.22
2022-11-24T05:06:44.835Z,97183.44
2022-11-24T05:07:47.698Z,97187.81
2022-11-24T05:08:52.328Z,97184.91
2022-11-24T05:10:13.981Z,97191.84
2022-11-24T05:11:16.961Z,97186.41
2022-11-24T05:12:19.700Z,97189.59
2022-11-24T05:13:22.453Z,97190.69
2022-11-24T05:14:25.361Z,97187.09
2022-11-24T05:15:28.956Z,97182.59
2022-11-24T05:16:32.235Z,97191.50
2022-11-24T05:17:37.956Z,97194.22
2022-11-24T05:18:40.719Z,97191.97
2022-11-24T05:19:43.422Z,97194.28
2022-11-24T05:20:46.574Z,97196.66
2022-11-24T05:21:49.331Z,97183.66
2022-11-24T05:22:52.065Z,97192.91
2022-11-24T05:23:54.749Z,97198.72
2022-11-24T05:24:58.241Z,97198.41
2022-11-24T05:26:01.743Z,97196.94
2022-11-24T05:27:04.534Z,97200.09
2022-11-24T05:28:11.832Z,97202.09
2022-11-24T05:29:14.639Z,97200.16
2022-11-24T05:30:17.647Z,97198.56
2022-11-24T05:31:23.912Z,97198.88
2022-11-24T05:32:26.781Z,97205.03
2022-11-24T05:33:30.516Z,97201.19
2022-11-24T05:34:33.813Z,97195.94
2022-11-24T05:35:36.894Z,97200.16
2022-11-24T05:36:56.454Z,97204.69
2022-11-24T05:37:59.439Z,97201.09
2022-11-24T05:39:02.275Z,97200.53
2022-11-24T05:40:07.087Z,97200.31
2022-11-24T05:41:09.813Z,97200.31
2022-11-24T05:42:31.661Z,97205.19
2022-11-24T05:43:35.122Z,97214.06
2022-11-24T05:44:37.862Z,97208.31
2022-11-24T05:45:40.660Z,97215.00
2022-11-24T05:46:43.641Z,97201.41
2022-11-24T05:47:47.446Z,97212.25
2022-11-24T05:48:50.247Z,97207.38
2022-11-24T05:49:53.361Z,97212.81
2022-11-24T05:50:57.700Z,97208.81
2022-11-24T05:52:00.586Z,97211.31
2022-11-24T05:53:13.978Z,97206.25
2022-11-24T05:54:16.776Z,97212.88
2022-11-24T05:55:19.760Z,97205.16
2022-11-24T05:56:22.876Z,97208.81
2022-11-24T05:57:25.701Z,97209.13
2022-11-24T05:58:31.334Z,97205.16
2022-11-24T05:59:34.260Z,97214.25
2022-11-24T06:00:37.754Z,97207.03
2022-11-24T06:01:40.704Z,97211.31
2022-11-24T06:02:43.751Z,97219.53
2022-11-24T06:03:46.625Z,97218.09
2022-11-24T06:04:49.422Z,97222.09
2022-11-24T06:05:52.209Z,97218.16
2022-11-24T06:06:55.119Z,97229.41
2022-11-24T06:07:59.409Z,97223.25
2022-11-24T06:09:02.584Z,97225.25
2022-11-24T06:10:05.866Z,97229.25
2022-11-24T06:11:18.551Z,97225.59
2022-11-24T06:12:21.573Z,97224.69
2022-11-24T06:13:24.483Z,97212.59
2022-11-24T06:14:27.525Z,97223.03
2022-11-24T06:15:30.246Z,97223.22
2022-11-24T06:16:33.526Z,97224.88
2022-11-24T06:17:36.404Z,97224.31
2022-11-24T06:18:39.655Z,97223.00
2022-11-24T06:19:45.819Z,97235.44
2022-11-24T06:21:09.757Z,97227.75
2022-11-24T06:22:12.936Z,97233.38
2022-11-24T06:23:20.122Z,97236.59
2022-11-24T06:24:22.888Z,97246.59
2022-11-24T06:25:26.528Z,97247.69
2022-11-24T06:26:29.434Z,97240.03
2022-11-24T06:27:32.591Z,97241.47
2022-11-24T06:28:36.823Z,97245.88
2022-11-24T06:29:39.688Z,97255.09
2022-11-24T06:30:42.465Z,97256.31
2022-11-24T06:31:45.292Z,97254.00
2022-11-24T06:32:51.698Z,97258.72
2022-11-24T06:33:54.667Z,97255.22
2022-11-24T06:34:57.817Z,97257.22
2022-11-24T06:36:07.390Z,97263.03
2022-11-24T06:37:10.445Z,97256.16
2022-11-24T06:38:13.340Z,97254.00
2022-11-24T06:39:16.139Z,97255.25
2022-11-24T06:40:19.088Z,97258.88
2022-11-24T06:41:21.877Z,97262.09
2022-11-24T06:42:24.814Z,97258.28
2022-11-24T06:43:29.563Z,97263.38
2022-11-24T06:44:32.785Z,97265.37
2022-11-24T06:45:36.195Z,97273.13
2022-11-24T06:46:39.600Z,97274.91
2022-11-24T06:47:42.396Z,97265.66
2022-11-24T06:48:45.407Z,97273.25
2022-11-24T06:49:48.146Z,97268.16
2022-11-24T06:50:52.028Z,97275.50
2022-11-24T06:51:55.407Z,97276.94
2022-11-24T06:52:58.320Z,97284.59
2022-11-24T06:54:01.880Z,97277.38
2022-11-24T06:55:05.076Z,97282.66
2022-11-24T06:56:16.150Z,97277.22
2022-11-24T06:57:19.605Z,97279.22
2022-11-24T06:58:22.853Z,97287.37
2022-11-24T06:59:26.770Z,97282.50
2022-11-24T07:00:32.274Z,97289.38
2022-11-24T07:01:35.022Z,97294.81
2022-11-24T07:02:42.491Z,97304.38
2022-11-24T07:03:49.927Z,97297.50
2022-11-24T07:04:52.712Z,97304.03
2022-11-24T07:05:59.037Z,97306.38
2022-11-24T07:07:03.190Z,97302.94
2022-11-24T07:08:06.212Z,97311.63
2022-11-24T07:09:15.869Z,97310.91
2022-11-24T07:10:19.019Z,97321.78
2022-11-24T07:11:24.425Z,97319.06
2022-11-24T07:12:27.474Z,97311.31
2022-11-24T07:13:30.244Z,97313.03
2022-11-24T07:14:33.706Z,97323.00
2022-11-24T07:15:36.878Z,97322.84
2022-11-24T07:16:40.119Z,97324.81
2022-11-24T07:17:42.909Z,97328.75
2022-11-24T07:18:47.874Z,97327.09
2022-11-24T07:19:50.613Z,97328.72
2022-11-24T07:20:53.484Z,97329.25
2022-11-24T07:21:56.732Z,97327.81
2022-11-24T07:22:59.848Z,97327.09
2022-11-24T07:24:02.627Z,97335.09
2022-11-24T07:25:07.614Z,97349.56
2022-11-24T07:26:12.536Z,97338.31
2022-11-24T07:27:15.356Z,97336.69
2022-11-24T07:28:18.288Z,97338.66
2022-11-24T07:29:21.256Z,97337.75
2022-11-24T07:30:24.736Z,97341.03
2022-11-24T07:31:27.698Z,97334.81
2022-11-24T07:32:30.946Z,97336.66
2022-11-24T07:33:34.204Z,97336.97
2022-11-24T07:34:37.242Z,97338.09
2022-11-24T07:35:40.142Z,97349.84
2022-11-24T07:36:43.255Z,97335.66
2022-11-24T07:37:45.919Z,97343.66
2022-11-24T07:38:49.351Z,97340.75
2022-11-24T07:39:52.130Z,97343.66
2022-11-24T07:40:54.937Z,97339.81
2022-11-24T07:42:00.570Z,97334.78
2022-11-24T07:43:03.692Z,97335.66
2022-11-24T07:44:06.681Z,97342.94
2022-11-24T07:45:09.934Z,97346.31
2022-11-24T07:46:15.874Z,97343.03
2022-11-24T07:47:18.715Z,97341.22
2022-11-24T07:48:23.287Z,97354.44
2022-11-24T07:49:26.014Z,97354.81
2022-11-24T07:50:29.068Z,97351.16
2022-11-24T07:51:31.862Z,97355.31
2022-11-24T07:52:34.807Z,97354.38
2022-11-24T07:53:38.583Z,97358.56
2022-11-24T07:54:41.398Z,97361.09
2022-11-24T07:55:44.298Z,97364.00
2022-11-24T07:56:50.156Z,97360.28
2022-11-24T07:57:52.916Z,97368.66
2022-11-24T07:58:55.718Z,97367.38
2022-11-24T07:59:58.510Z,97364.50
2022-11-24T08:01:16.572Z,97363.47
2022-11-24T08:02:19.854Z,97360.09
2022-11-24T08:03:24.122Z,97360.59
2022-11-24T08:04:27.351Z,97357.38
2022-11-24T08:05:31.144Z,97362.28
2022-11-24T08:06:39.734Z,97362.81
2022-11-24T08:07:46.113Z,97356.84
2022-11-24T08:08:49.166Z,97362.09
2022-11-24T08:09:52.403Z,97355.06
2022-11-24T08:10:55.172Z,97359.06
2022-11-24T08:11:57.891Z,97354.72
2022-11-24T08:13:01.956Z,97354.16
2022-11-24T08:14:04.754Z,97358.50
2022-11-24T08:15:11.985Z,97350.59
2022-11-24T08:16:17.536Z,97357.66
2022-11-24T08:17:20.649Z,97362.19
2022-11-24T08:18:24.919Z,97361.63
2022-11-24T08:19:27.805Z,97356.75
2022-11-24T08:20:30.782Z,97365.81
2022-11-24T08:21:33.612Z,97370.19
2022-11-24T08:22:36.397Z,97366.03
2022-11-24T08:23:39.587Z,97362.75
2022-11-24T08:24:47.338Z,97375.56
2022-11-24T08:25:56.988Z,97369.19
2022-11-24T08:26:59.996Z,97374.69
2022-11-24T08:28:04.640Z,97362.66
2022-11-24T08:29:08.150Z,97381.50
2022-11-24T08:30:14.953Z,97375.66
2022-11-24T08:31:19.345Z,97385.25
2022-11-24T08:32:23.955Z,97379.69
2022-11-24T08:33:26.691Z,97381.50
2022-11-24T08:34:29.698Z,97384.31
2022-11-24T08:35:35.749Z,97391.03
2022-11-24T08:36:38.457Z,97394.00
2022-11-24T08:37:41.306Z,97389.41
2022-11-24T08:38:45.977Z,97391.19
2022-11-24T08:39:49.023Z,97396.63
2022-11-24T08:40:51.816Z,97399.12
2022-11-24T08:41:54.584Z,97398.41
2022-11-24T08:42:59.261Z,97394.00
2022-11-24T08:44:01.958Z,97403.63
2022-11-24T08:45:20.004Z,97398.16
2022-11-24T08:46:24.615Z,97402.03
2022-11-24T08:47:27.383Z,97395.13
2022-11-24T08:48:30.745Z,97397.13
2022-11-24T08:49:33.489Z,97396.84
2022-11-24T08:50:37.721Z,97395.44
2022-11-24T08:51:41.119Z,97395.31
2022-11-24T08:52:44.040Z,97401.03
2022-11-24T08:53:46.995Z,97398.97
2022-11-24T08:54:50.589Z,97393.53
2022-11-24T08:55:53.432Z,97394.63
2022-11-24T08:56:56.260Z,97395.53
2022-11-24T08:57:59.057Z,97397.53
2022-11-24T08:59:02.875Z,97392.59
2022-11-24T09:00:06.512Z,97395.84
2022-11-24T09:01:15.883Z,97401.84
2022-11-24T09:02:19.432Z,97405.12
2022-11-24T09:03:22.379Z,97401.69
2022-11-24T09:04:25.098Z,97402.97
2022-11-24T09:06:50.819Z,97389.53
2022-11-24T09:07:53.826Z,97387.69
2022-11-24T09:08:57.933Z,97397.84
2022-11-24T09:10:00.893Z,97402.81
2022-11-24T09:11:09.304Z,97401.59
2022-11-24T09:12:14.606Z,97396.16
2022-11-24T09:13:17.947Z,97398.09
2022-11-24T09:14:20.898Z,97387.41
2022-11-24T09:15:23.729Z,97392.13
2022-11-24T09:16:29.162Z,97399.38
2022-11-24T09:17:33.070Z,97394.13
2022-11-24T09:18:36.468Z,97397.72
2022-11-24T09:19:42.422Z,97397.38
2022-11-24T09:20:45.508Z,97395.06
2022-11-24T09:21:49.123Z,97390.84
2022-11-24T09:22:52.019Z,97390.50
2022-11-24T09:23:56.057Z,97398.88
2022-11-24T09:24:58.823Z,97397.78
2022-11-24T09:26:10.369Z,97395.06
2022-11-24T09:27:16.748Z,97391.56
2022-11-24T09:28:19.676Z,97404.59
2022-11-24T09:29:22.525Z,97394.75
2022-11-24T09:30:25.265Z,97401.56
2022-11-24T09:31:31.437Z,97399.72
2022-11-24T09:32:34.432Z,97407.63
2022-11-24T09:33:37.861Z,97408.91
2022-11-24T09:34:40.635Z,97415.06
2022-11-24T09:35:43.423Z,97402.75
2022-11-24T09:36:49.735Z,97413.41
2022-11-24T09:37:52.618Z,97419.94
2022-11-24T09:38:55.977Z,97409.78
2022-11-24T09:39:58.668Z,97420.38
2022-11-24T09:41:27.655Z,97411.88
2022-11-24T09:42:46.994Z,97422.38
2022-11-24T09:44:34.151Z,97417.81
2022-11-24T09:46:07.686Z,97413.47
2022-11-24T09:47:23.068Z,97419.38
2022-11-24T09:48:44.649Z,97424.91
2022-11-24T09:49:59.331Z,97425.84
2022-11-24T09:51:04.624Z,97431.16
2022-11-24T09:52:15.197Z,97418.50
2022-11-24T09:53:44.882Z,97419.69
2022-11-24T09:55:00.710Z,97423.63
2022-11-24T09:56:14.862Z,97428.91
2022-11-24T09:57:21.350Z,97423.25
2022-11-24T09:58:53.900Z,97423.97
2022-11-24T10:00:03.757Z,97419.63
2022-11-24T10:01:22.120Z,97424.75
2022-11-24T10:02:26.009Z,97422.56
2022-11-24T10:03:43.655Z,97426.41
2022-11-24T10:04:47.613Z,97425.72
2022-11-24T10:05:51.714Z,97438.50
2022-11-24T10:07:30.808Z,97430.69
2022-11-24T10:08:51.916Z,97427.78
2022-11-24T10:10:08.837Z,97436.69
2022-11-24T10:11:16.950Z,97432.28
2022-11-24T10:12:39.835Z,97427.56
2022-11-24T10:14:19.764Z,97435.00
2022-11-24T10:16:00.343Z,97425.25
2022-11-24T10:17:23.677Z,97420.53
2022-11-24T10:18:44.796Z,97428.59
2022-11-24T10:20:06.744Z,97424.28
2022-11-24T10:21:52.372Z,97427.16
2022-11-24T10:23:38.398Z,97427.16
2022-11-24T10:25:09.447Z,97429.31
2022-11-24T10:26:33.406Z,97438.03
2022-11-24T10:27:42.306Z,97438.03
2022-11-24T10:28:55.703Z,97433.09
2022-11-24T10:30:00.736Z,97429.66
2022-11-24T10:31:23.684Z,97433.66
2022-11-24T10:32:44.255Z,97434.94
2022-11-24T10:33:47.995Z,97441.81
2022-11-24T10:34:50.940Z,97440.16
2022-11-24T10:36:04.458Z,97444.47
2022-11-24T10:37:26.021Z,97443.19
2022-11-24T10:39:07.815Z,97445.28
2022-11-24T10:40:56.007Z,97450.22
2022-11-24T10:42:23.635Z,97444.41
2022-11-24T10:43:28.322Z,97445.69
2022-11-24T10:44:34.257Z,97448.41
2022-11-24T10:45:39.557Z,97447.84
2022-11-24T10:46:42.874Z,97445.13
2022-11-24T10:47:47.622Z,97445.13
2022-11-24T10:48:53.935Z,97448.41
2022-11-24T10:50:24.439Z,97453.09
2022-11-24T10:51:49.160Z,97449.84
2022-11-24T10:52:56.829Z,97461.38
2022-11-24T10:54:21.170Z,97453.69
2022-11-24T10:55:24.899Z,97460.78
2022-11-24T10:56:27.931Z,97457.22
2022-11-24T10:57:32.606Z,97455.06
2022-11-24T10:58:38.686Z,97453.63
2022-11-24T10:59:41.558Z,97461.38
2022-11-24T11:00:44.424Z,97455.53
2022-11-24T11:01:47.376Z,97458.25
2022-11-24T11:02:58.531Z,97458.41
2022-11-24T11:04:01.822Z,97462.41
2022-11-24T11:06:09.353Z,97465.22
2022-11-24T11:07:25.404Z,97471.72
2022-11-24T11:08:30.647Z,97461.94
2022-11-24T11:09:33.692Z,97463.22
2022-11-24T11:10:36.789Z,97464.97
2022-11-24T11:11:40.197Z,97470.59
2022-11-24T11:12:44.594Z,97479.22
2022-11-24T11:14:02.894Z,97470.81
2022-11-24T11:15:25.961Z,97470.56
2022-11-24T11:16:37.350Z,97467.84
2022-11-24T11:17:44.680Z,97474.72
2022-11-24T11:18:49.754Z,97478.59
2022-11-24T11:20:01.438Z,97475.63
2022-11-24T11:21:05.747Z,97467.78
2022-11-24T11:22:11.496Z,97478.50
2022-11-24T11:23:42.023Z,97473.28
2022-11-24T11:24:47.489Z,97479.75
2022-11-24T11:25:50.325Z,97480.09
2022-11-24T11:27:03.964Z,97488.16
2022-11-24T11:28:30.354Z,97482.69
2022-11-24T11:34:20.528Z,97484.31
2022-11-24T11:35:29.090Z,97485.84
2022-11-24T11:36:33.387Z,97486.56
2022-11-24T11:37:36.236Z,97484.31
2022-11-24T11:38:40.793Z,97491.19
2022-11-24T11:39:49.077Z,97489.59
2022-11-24T11:40:52.775Z,97496.78
2022-11-24T11:42:01.729Z,97491.34
2022-11-24T11:43:31.848Z,97488.06
2022-11-24T11:45:01.213Z,97491.19
2022-11-24T11:46:10.063Z,97496.06
2022-11-24T11:47:25.668Z,97492.09
2022-11-24T11:48:43.707Z,97498.56
2022-11-24T11:49:49.488Z,97495.69
2022-11-24T11:51:27.474Z,97496.88
2022-11-24T11:52:42.267Z,97484.13
2022-11-24T11:54:12.496Z,97495.19
2022-11-24T11:55:27.325Z,97506.81
2022-11-24T11:56:49.500Z,97504.81
2022-11-24T11:58:24.305Z,97501.25
2022-11-24T11:59:51.245Z,97494.94
2022-11-24T12:01:34.248Z,97505.03
2022-11-24T12:02:46.114Z,97503.00
2022-11-24T12:04:13.953Z,97502.16
2022-11-24T12:05:30.809Z,97499.69
2022-11-24T12:06:42.417Z,97502.28
2022-11-24T12:07:54.042Z,97505.34
2022-11-24T12:09:32.809Z,97508.47
2022-11-24T12:10:39.473Z,97498.72
2022-11-24T12:12:21.503Z,97502.56
2022-11-24T12:13:38.849Z,97502.41
2022-11-24T12:15:10.796Z,97500.25
2022-11-24T12:16:48.551Z,97496.97
2022-11-24T12:18:40.232Z,97498.38
2022-11-24T12:20:01.398Z,97488.91
2022-11-24T12:21:39.519Z,97498.72
2022-11-24T12:23:03.133Z,97498.06
2022-11-24T12:24:32.572Z,97497.53
2022-11-24T12:25:42.170Z,97499.09
2022-11-24T12:26:54.174Z,97501.13
2022-11-24T12:28:30.321Z,97509.63
2022-11-24T12:29:53.587Z,97501.13
2022-11-24T12:31:07.225Z,97512.75
2022-11-24T12:32:39.160Z,97508.97
2022-11-24T12:34:00.826Z,97501.84
2022-11-24T12:35:09.778Z,97509.63
2022-11-24T12:36:45.816Z,97508.31
2022-11-24T12:38:22.712Z,97503.72
2022-11-24T12:39:34.905Z,97501.19
2022-11-24T12:41:25.604Z,97511.38
2022-11-24T12:43:02.810Z,97518.00
2022-11-24T12:44:21.086Z,97506.97
2022-11-24T12:45:42.650Z,97511.97
2022-11-24T12:47:03.957Z,97508.53
2022-11-24T12:48:36.537Z,97526.06
2022-11-24T12:50:10.760Z,97513.84
2022-11-24T12:51:24.620Z,97521.44
2022-11-24T12:52:36.299Z,97517.44
2022-11-24T12:53:39.330Z,97510.22
2022-11-24T12:54:42.119Z,97522.81
2022-11-24T12:55:46.411Z,97516.81
2022-11-24T12:57:05.910Z,97518.91
2022-11-24T12:58:32.195Z,97519.72
2022-11-24T12:59:59.710Z,97522.13
2022-11-24T13:01:25.527Z,97513.78
2022-11-24T13:02:47.672Z,97519.00
2022-11-24T13:04:28.638Z,97518.09
2022-11-24T13:05:36.747Z,97520.06
2022-11-24T13:07:00.841Z,97511.22
2022-11-24T13:08:05.588Z,97522.13
2022-11-24T13:09:10.677Z,97519.16
2022-11-24T13:10:58.558Z,97512.34
2022-11-24T13:11:55.824Z,97522.53
2022-11-24T13:13:13.237Z,97510.03
2022-11-24T13:14:34.683Z,97512.44
2022-11-24T13:17:36.310Z,97515.47
2022-11-24T13:18:57.685Z,97517.09
2022-11-24T13:20:21.770Z,97512.19
2022-11-24T13:21:52.026Z,97514.91
2022-11-24T13:23:03.620Z,97516.78
2022-11-24T13:24:19.343Z,97525.50
2022-11-24T13:25:29.760Z,97523.91